sensor_id;sensor_type;location;lat;lon;timestamp;P1;durP1;ratioP1;P2;durP2;ratioP2
11287;SDS011;5700;50.996;7.044;2023-08-06T00:02:40;6.18;;;2.97;;
11287;SDS011;5700;50.996;7.044;2023-08-06T00:05:41;6.80;;;3.20;;
11287;SDS011;5700;50.996;7.044;2023-08-06T00:08:43;8.55;;;3.22;;
11287;SDS011;5700;50.996;7.044;2023-08-06T00:11:45;9.38;;;3.22;;
11287;SDS011;5700;50.996;7.044;2023-08-06T00:14:49;4.72;;;2.67;;
11287;SDS011;5700;50.996;7.044;2023-08-06T00:17:53;10.02;;;3.53;;
11287;SDS011;5700;50.996;7.044;2023-08-06T00:20:54;5.43;;;2.85;;
11287;SDS011;5700;50.996;7.044;2023-08-06T00:23:56;7.53;;;3.15;;
11287;SDS011;5700;50.996;7.044;2023-08-06T00:26:58;5.18;;;3.20;;
11287;SDS011;5700;50.996;7.044;2023-08-06T00:29:59;6.20;;;3.30;;
11287;SDS011;5700;50.996;7.044;2023-08-06T00:33:03;7.93;;;2.85;;
11287;SDS011;5700;50.996;7.044;2023-08-06T00:36:04;4.68;;;2.63;;
11287;SDS011;5700;50.996;7.044;2023-08-06T00:39:06;7.07;;;2.55;;
11287;SDS011;5700;50.996;7.044;2023-08-06T00:42:08;5.15;;;2.80;;
11287;SDS011;5700;50.996;7.044;2023-08-06T00:45:10;7.47;;;3.17;;
11287;SDS011;5700;50.996;7.044;2023-08-06T00:48:12;6.18;;;2.90;;
11287;SDS011;5700;50.996;7.044;2023-08-06T00:51:14;4.97;;;2.72;;
11287;SDS011;5700;50.996;7.044;2023-08-06T00:54:17;7.78;;;3.15;;
11287;SDS011;5700;50.996;7.044;2023-08-06T00:57:18;6.15;;;3.17;;
11287;SDS011;5700;50.996;7.044;2023-08-06T01:00:21;5.20;;;3.13;;
11287;SDS011;5700;50.996;7.044;2023-08-06T01:03:24;4.90;;;2.80;;
11287;SDS011;5700;50.996;7.044;2023-08-06T01:06:29;6.22;;;2.97;;
11287;SDS011;5700;50.996;7.044;2023-08-06T01:09:39;6.13;;;2.80;;
11287;SDS011;5700;50.996;7.044;2023-08-06T01:12:48;4.60;;;3.00;;
11287;SDS011;5700;50.996;7.044;2023-08-06T01:15:54;8.23;;;2.92;;
11287;SDS011;5700;50.996;7.044;2023-08-06T01:18:59;5.68;;;3.20;;
11287;SDS011;5700;50.996;7.044;2023-08-06T01:22:02;5.53;;;2.97;;
11287;SDS011;5700;50.996;7.044;2023-08-06T01:25:04;6.35;;;2.75;;
11287;SDS011;5700;50.996;7.044;2023-08-06T01:28:08;7.25;;;3.10;;
11287;SDS011;5700;50.996;7.044;2023-08-06T01:31:14;5.75;;;3.15;;
11287;SDS011;5700;50.996;7.044;2023-08-06T01:34:19;6.72;;;3.35;;
11287;SDS011;5700;50.996;7.044;2023-08-06T01:37:23;4.72;;;2.83;;
11287;SDS011;5700;50.996;7.044;2023-08-06T01:40:25;6.30;;;2.95;;
11287;SDS011;5700;50.996;7.044;2023-08-06T01:43:28;5.93;;;3.13;;
11287;SDS011;5700;50.996;7.044;2023-08-06T01:46:29;5.13;;;3.00;;
11287;SDS011;5700;50.996;7.044;2023-08-06T01:49:31;5.30;;;2.97;;
11287;SDS011;5700;50.996;7.044;2023-08-06T01:52:34;7.93;;;3.38;;
11287;SDS011;5700;50.996;7.044;2023-08-06T01:55:36;6.85;;;3.55;;
11287;SDS011;5700;50.996;7.044;2023-08-06T01:58:37;8.07;;;3.70;;
11287;SDS011;5700;50.996;7.044;2023-08-06T02:01:39;7.20;;;3.10;;
11287;SDS011;5700;50.996;7.044;2023-08-06T02:04:40;5.60;;;3.15;;
11287;SDS011;5700;50.996;7.044;2023-08-06T02:07:44;5.63;;;3.00;;
11287;SDS011;5700;50.996;7.044;2023-08-06T02:10:45;6.10;;;3.40;;
11287;SDS011;5700;50.996;7.044;2023-08-06T02:13:47;6.03;;;3.10;;
11287;SDS011;5700;50.996;7.044;2023-08-06T02:16:48;4.78;;;2.83;;
11287;SDS011;5700;50.996;7.044;2023-08-06T02:19:50;6.60;;;3.00;;
11287;SDS011;5700;50.996;7.044;2023-08-06T02:22:53;5.45;;;3.20;;
11287;SDS011;5700;50.996;7.044;2023-08-06T02:25:58;4.95;;;3.05;;
11287;SDS011;5700;50.996;7.044;2023-08-06T02:29:00;6.63;;;3.15;;
11287;SDS011;5700;50.996;7.044;2023-08-06T02:32:02;5.38;;;3.13;;
11287;SDS011;5700;50.996;7.044;2023-08-06T02:35:05;6.60;;;3.25;;
11287;SDS011;5700;50.996;7.044;2023-08-06T02:38:08;7.30;;;2.70;;
11287;SDS011;5700;50.996;7.044;2023-08-06T02:41:11;5.68;;;3.05;;
11287;SDS011;5700;50.996;7.044;2023-08-06T02:44:13;4.88;;;2.72;;
11287;SDS011;5700;50.996;7.044;2023-08-06T02:47:15;4.35;;;2.60;;
11287;SDS011;5700;50.996;7.044;2023-08-06T02:50:16;5.65;;;2.88;;
11287;SDS011;5700;50.996;7.044;2023-08-06T02:53:19;4.28;;;2.70;;
11287;SDS011;5700;50.996;7.044;2023-08-06T02:56:20;7.50;;;2.90;;
11287;SDS011;5700;50.996;7.044;2023-08-06T02:59:22;7.32;;;2.83;;
11287;SDS011;5700;50.996;7.044;2023-08-06T03:02:25;4.70;;;2.60;;
11287;SDS011;5700;50.996;7.044;2023-08-06T03:05:26;4.80;;;2.42;;
11287;SDS011;5700;50.996;7.044;2023-08-06T03:08:29;4.32;;;2.53;;
11287;SDS011;5700;50.996;7.044;2023-08-06T03:11:31;6.32;;;2.47;;
11287;SDS011;5700;50.996;7.044;2023-08-06T03:14:32;5.47;;;2.55;;
11287;SDS011;5700;50.996;7.044;2023-08-06T03:17:34;4.43;;;2.20;;
11287;SDS011;5700;50.996;7.044;2023-08-06T03:20:36;6.20;;;2.97;;
11287;SDS011;5700;50.996;7.044;2023-08-06T03:23:39;7.00;;;3.25;;
11287;SDS011;5700;50.996;7.044;2023-08-06T03:26:41;8.43;;;2.83;;
11287;SDS011;5700;50.996;7.044;2023-08-06T03:29:43;6.90;;;2.95;;
11287;SDS011;5700;50.996;7.044;2023-08-06T03:32:44;9.60;;;3.05;;
11287;SDS011;5700;50.996;7.044;2023-08-06T03:35:47;6.00;;;2.70;;
11287;SDS011;5700;50.996;7.044;2023-08-06T03:38:50;6.10;;;3.22;;
11287;SDS011;5700;50.996;7.044;2023-08-06T03:41:51;6.22;;;3.00;;
11287;SDS011;5700;50.996;7.044;2023-08-06T03:44:53;6.78;;;3.10;;
11287;SDS011;5700;50.996;7.044;2023-08-06T03:47:55;4.43;;;2.72;;
11287;SDS011;5700;50.996;7.044;2023-08-06T03:50:56;10.15;;;3.20;;
11287;SDS011;5700;50.996;7.044;2023-08-06T03:54:02;4.45;;;2.63;;
11287;SDS011;5700;50.996;7.044;2023-08-06T03:57:04;5.93;;;2.72;;
11287;SDS011;5700;50.996;7.044;2023-08-06T04:00:06;6.30;;;2.75;;
11287;SDS011;5700;50.996;7.044;2023-08-06T04:03:09;5.47;;;3.00;;
11287;SDS011;5700;50.996;7.044;2023-08-06T04:06:10;4.28;;;2.70;;
11287;SDS011;5700;50.996;7.044;2023-08-06T04:09:13;7.43;;;2.75;;
11287;SDS011;5700;50.996;7.044;2023-08-06T04:12:15;9.68;;;2.55;;
11287;SDS011;5700;50.996;7.044;2023-08-06T04:15:17;5.30;;;2.10;;
11287;SDS011;5700;50.996;7.044;2023-08-06T04:18:18;8.75;;;2.70;;
11287;SDS011;5700;50.996;7.044;2023-08-06T04:21:20;6.20;;;3.30;;
11287;SDS011;5700;50.996;7.044;2023-08-06T04:24:23;6.45;;;2.88;;
11287;SDS011;5700;50.996;7.044;2023-08-06T04:27:25;4.40;;;2.50;;
11287;SDS011;5700;50.996;7.044;2023-08-06T04:30:27;2.92;;;2.38;;
11287;SDS011;5700;50.996;7.044;2023-08-06T04:33:28;3.85;;;2.17;;
11287;SDS011;5700;50.996;7.044;2023-08-06T04:36:30;8.43;;;2.60;;
11287;SDS011;5700;50.996;7.044;2023-08-06T04:39:33;4.63;;;2.25;;
11287;SDS011;5700;50.996;7.044;2023-08-06T04:42:34;6.43;;;2.92;;
11287;SDS011;5700;50.996;7.044;2023-08-06T04:45:36;4.55;;;2.33;;
11287;SDS011;5700;50.996;7.044;2023-08-06T04:48:38;6.10;;;2.45;;
11287;SDS011;5700;50.996;7.044;2023-08-06T04:51:39;6.05;;;2.72;;
11287;SDS011;5700;50.996;7.044;2023-08-06T04:54:43;5.07;;;2.58;;
11287;SDS011;5700;50.996;7.044;2023-08-06T04:57:45;4.18;;;2.13;;
11287;SDS011;5700;50.996;7.044;2023-08-06T05:00:47;8.70;;;2.47;;
11287;SDS011;5700;50.996;7.044;2023-08-06T05:03:48;4.30;;;2.10;;
11287;SDS011;5700;50.996;7.044;2023-08-06T05:06:50;5.15;;;2.25;;
11287;SDS011;5700;50.996;7.044;2023-08-06T05:09:53;4.25;;;2.30;;
11287;SDS011;5700;50.996;7.044;2023-08-06T05:12:55;5.78;;;2.33;;
11287;SDS011;5700;50.996;7.044;2023-08-06T05:15:56;5.82;;;2.17;;
11287;SDS011;5700;50.996;7.044;2023-08-06T05:18:59;3.83;;;2.00;;
11287;SDS011;5700;50.996;7.044;2023-08-06T05:22:01;4.15;;;2.15;;
11287;SDS011;5700;50.996;7.044;2023-08-06T05:25:04;5.97;;;2.30;;
11287;SDS011;5700;50.996;7.044;2023-08-06T05:28:06;4.88;;;2.10;;
11287;SDS011;5700;50.996;7.044;2023-08-06T05:31:08;5.22;;;2.67;;
11287;SDS011;5700;50.996;7.044;2023-08-06T05:34:09;5.15;;;2.28;;
11287;SDS011;5700;50.996;7.044;2023-08-06T05:37:11;3.75;;;2.30;;
11287;SDS011;5700;50.996;7.044;2023-08-06T05:40:14;4.88;;;2.40;;
11287;SDS011;5700;50.996;7.044;2023-08-06T05:43:16;4.10;;;2.03;;
11287;SDS011;5700;50.996;7.044;2023-08-06T05:46:18;4.47;;;2.55;;
11287;SDS011;5700;50.996;7.044;2023-08-06T05:49:19;6.60;;;2.58;;
11287;SDS011;5700;50.996;7.044;2023-08-06T05:52:21;3.58;;;2.08;;
11287;SDS011;5700;50.996;7.044;2023-08-06T05:55:24;4.32;;;2.30;;
11287;SDS011;5700;50.996;7.044;2023-08-06T05:58:25;6.55;;;2.30;;
11287;SDS011;5700;50.996;7.044;2023-08-06T06:01:29;4.13;;;2.10;;
11287;SDS011;5700;50.996;7.044;2023-08-06T06:04:31;4.72;;;2.50;;
11287;SDS011;5700;50.996;7.044;2023-08-06T06:07:32;6.10;;;2.40;;
11287;SDS011;5700;50.996;7.044;2023-08-06T06:10:36;4.80;;;2.40;;
11287;SDS011;5700;50.996;7.044;2023-08-06T06:13:37;5.22;;;2.25;;
11287;SDS011;5700;50.996;7.044;2023-08-06T06:16:39;5.43;;;2.03;;
11287;SDS011;5700;50.996;7.044;2023-08-06T06:19:41;4.28;;;2.20;;
11287;SDS011;5700;50.996;7.044;2023-08-06T06:22:43;4.03;;;2.13;;
11287;SDS011;5700;50.996;7.044;2023-08-06T06:25:48;6.20;;;2.20;;
11287;SDS011;5700;50.996;7.044;2023-08-06T06:28:51;3.83;;;1.83;;
11287;SDS011;5700;50.996;7.044;2023-08-06T06:31:53;5.32;;;2.33;;
11287;SDS011;5700;50.996;7.044;2023-08-06T06:34:55;5.00;;;2.50;;
11287;SDS011;5700;50.996;7.044;2023-08-06T06:37:56;3.80;;;2.00;;
11287;SDS011;5700;50.996;7.044;2023-08-06T06:40:59;3.80;;;2.05;;
11287;SDS011;5700;50.996;7.044;2023-08-06T06:44:03;3.65;;;2.05;;
11287;SDS011;5700;50.996;7.044;2023-08-06T06:47:05;4.95;;;1.88;;
11287;SDS011;5700;50.996;7.044;2023-08-06T06:50:07;2.60;;;1.65;;
11287;SDS011;5700;50.996;7.044;2023-08-06T06:53:09;2.30;;;1.50;;
11287;SDS011;5700;50.996;7.044;2023-08-06T06:56:12;3.33;;;1.88;;
11287;SDS011;5700;50.996;7.044;2023-08-06T06:59:13;3.47;;;1.63;;
11287;SDS011;5700;50.996;7.044;2023-08-06T07:02:15;3.25;;;1.70;;
11287;SDS011;5700;50.996;7.044;2023-08-06T07:05:16;3.97;;;2.03;;
11287;SDS011;5700;50.996;7.044;2023-08-06T07:08:18;4.38;;;2.05;;
11287;SDS011;5700;50.996;7.044;2023-08-06T07:11:22;2.40;;;1.77;;
11287;SDS011;5700;50.996;7.044;2023-08-06T07:14:24;3.80;;;2.10;;
11287;SDS011;5700;50.996;7.044;2023-08-06T07:17:26;3.33;;;2.00;;
11287;SDS011;5700;50.996;7.044;2023-08-06T07:20:27;3.60;;;1.98;;
11287;SDS011;5700;50.996;7.044;2023-08-06T07:23:31;3.53;;;1.75;;
11287;SDS011;5700;50.996;7.044;2023-08-06T07:26:34;4.75;;;1.80;;
11287;SDS011;5700;50.996;7.044;2023-08-06T07:29:36;3.90;;;1.58;;
11287;SDS011;5700;50.996;7.044;2023-08-06T07:32:38;1.83;;;1.35;;
11287;SDS011;5700;50.996;7.044;2023-08-06T07:35:40;3.38;;;1.98;;
11287;SDS011;5700;50.996;7.044;2023-08-06T07:38:43;2.90;;;1.27;;
11287;SDS011;5700;50.996;7.044;2023-08-06T07:41:46;3.00;;;1.20;;
11287;SDS011;5700;50.996;7.044;2023-08-06T07:44:50;2.85;;;1.50;;
11287;SDS011;5700;50.996;7.044;2023-08-06T07:47:52;1.92;;;1.23;;
11287;SDS011;5700;50.996;7.044;2023-08-06T07:50:54;1.98;;;1.23;;
11287;SDS011;5700;50.996;7.044;2023-08-06T07:53:56;1.30;;;1.10;;
11287;SDS011;5700;50.996;7.044;2023-08-06T07:57:00;1.70;;;1.02;;
11287;SDS011;5700;50.996;7.044;2023-08-06T08:00:01;1.20;;;0.80;;
11287;SDS011;5700;50.996;7.044;2023-08-06T08:03:03;2.03;;;0.80;;
11287;SDS011;5700;50.996;7.044;2023-08-06T08:06:05;0.95;;;0.60;;
11287;SDS011;5700;50.996;7.044;2023-08-06T08:09:06;0.95;;;0.65;;
11287;SDS011;5700;50.996;7.044;2023-08-06T08:12:09;0.93;;;0.73;;
11287;SDS011;5700;50.996;7.044;2023-08-06T08:15:11;1.30;;;0.80;;
11287;SDS011;5700;50.996;7.044;2023-08-06T08:18:12;1.25;;;0.80;;
11287;SDS011;5700;50.996;7.044;2023-08-06T08:21:14;0.88;;;0.60;;
11287;SDS011;5700;50.996;7.044;2023-08-06T08:24:16;2.25;;;1.13;;
11287;SDS011;5700;50.996;7.044;2023-08-06T08:27:21;1.00;;;0.65;;
11287;SDS011;5700;50.996;7.044;2023-08-06T08:30:23;2.08;;;1.00;;
11287;SDS011;5700;50.996;7.044;2023-08-06T08:33:25;1.60;;;0.90;;
11287;SDS011;5700;50.996;7.044;2023-08-06T08:36:26;1.40;;;0.88;;
11287;SDS011;5700;50.996;7.044;2023-08-06T08:39:28;1.10;;;0.68;;
11287;SDS011;5700;50.996;7.044;2023-08-06T08:42:31;2.38;;;0.95;;
11287;SDS011;5700;50.996;7.044;2023-08-06T08:45:33;0.80;;;0.60;;
11287;SDS011;5700;50.996;7.044;2023-08-06T08:48:36;1.25;;;0.80;;
11287;SDS011;5700;50.996;7.044;2023-08-06T08:51:38;0.98;;;0.80;;
11287;SDS011;5700;50.996;7.044;2023-08-06T08:54:39;0.90;;;0.68;;
11287;SDS011;5700;50.996;7.044;2023-08-06T08:57:43;1.17;;;0.60;;
11287;SDS011;5700;50.996;7.044;2023-08-06T09:00:45;1.27;;;0.88;;
11287;SDS011;5700;50.996;7.044;2023-08-06T09:03:48;1.00;;;0.77;;
11287;SDS011;5700;50.996;7.044;2023-08-06T09:06:50;2.20;;;0.80;;
11287;SDS011;5700;50.996;7.044;2023-08-06T09:09:52;1.23;;;0.75;;
11287;SDS011;5700;50.996;7.044;2023-08-06T09:12:55;2.03;;;1.30;;
11287;SDS011;5700;50.996;7.044;2023-08-06T09:15:57;1.73;;;1.05;;
11287;SDS011;5700;50.996;7.044;2023-08-06T09:19:00;3.35;;;1.52;;
11287;SDS011;5700;50.996;7.044;2023-08-06T09:22:08;3.65;;;2.00;;
11287;SDS011;5700;50.996;7.044;2023-08-06T09:25:14;2.92;;;2.05;;
11287;SDS011;5700;50.996;7.044;2023-08-06T09:28:25;3.25;;;2.08;;
11287;SDS011;5700;50.996;7.044;2023-08-06T09:31:40;3.78;;;2.10;;
11287;SDS011;5700;50.996;7.044;2023-08-06T09:34:43;6.60;;;2.35;;
11287;SDS011;5700;50.996;7.044;2023-08-06T09:37:45;3.60;;;2.50;;
11287;SDS011;5700;50.996;7.044;2023-08-06T09:40:47;5.03;;;3.20;;
11287;SDS011;5700;50.996;7.044;2023-08-06T09:43:50;4.97;;;3.28;;
11287;SDS011;5700;50.996;7.044;2023-08-06T09:46:52;4.68;;;3.25;;
11287;SDS011;5700;50.996;7.044;2023-08-06T09:49:54;4.30;;;3.08;;
11287;SDS011;5700;50.996;7.044;2023-08-06T09:52:58;5.82;;;3.35;;
11287;SDS011;5700;50.996;7.044;2023-08-06T09:56:00;5.25;;;3.40;;
11287;SDS011;5700;50.996;7.044;2023-08-06T09:59:03;5.28;;;3.70;;
11287;SDS011;5700;50.996;7.044;2023-08-06T10:02:06;5.75;;;3.67;;
11287;SDS011;5700;50.996;7.044;2023-08-06T10:05:13;5.15;;;3.40;;
11287;SDS011;5700;50.996;7.044;2023-08-06T10:08:15;7.15;;;4.70;;
11287;SDS011;5700;50.996;7.044;2023-08-06T10:11:17;9.65;;;5.55;;
11287;SDS011;5700;50.996;7.044;2023-08-06T10:14:21;9.55;;;5.18;;
11287;SDS011;5700;50.996;7.044;2023-08-06T10:17:29;8.05;;;5.13;;
11287;SDS011;5700;50.996;7.044;2023-08-06T10:20:33;5.90;;;3.47;;
11287;SDS011;5700;50.996;7.044;2023-08-06T10:23:36;2.10;;;1.20;;
11287;SDS011;5700;50.996;7.044;2023-08-06T10:26:38;0.60;;;0.50;;
11287;SDS011;5700;50.996;7.044;2023-08-06T10:29:41;0.82;;;0.60;;
11287;SDS011;5700;50.996;7.044;2023-08-06T10:32:46;0.25;;;0.25;;
11287;SDS011;5700;50.996;7.044;2023-08-06T10:35:50;0.80;;;0.60;;
11287;SDS011;5700;50.996;7.044;2023-08-06T10:38:53;0.30;;;0.30;;
11287;SDS011;5700;50.996;7.044;2023-08-06T10:41:59;0.52;;;0.40;;
11287;SDS011;5700;50.996;7.044;2023-08-06T10:48:28;1.08;;;0.40;;
11287;SDS011;5700;50.996;7.044;2023-08-06T10:51:31;1.33;;;0.52;;
11287;SDS011;5700;50.996;7.044;2023-08-06T10:54:33;1.10;;;0.85;;
11287;SDS011;5700;50.996;7.044;2023-08-06T10:57:35;1.55;;;0.90;;
11287;SDS011;5700;50.996;7.044;2023-08-06T11:00:39;1.75;;;1.25;;
11287;SDS011;5700;50.996;7.044;2023-08-06T11:03:41;1.30;;;1.00;;
11287;SDS011;5700;50.996;7.044;2023-08-06T11:06:43;2.83;;;1.20;;
11287;SDS011;5700;50.996;7.044;2023-08-06T11:09:44;1.85;;;1.27;;
11287;SDS011;5700;50.996;7.044;2023-08-06T11:12:46;1.85;;;1.00;;
11287;SDS011;5700;50.996;7.044;2023-08-06T11:15:49;4.38;;;1.55;;
11287;SDS011;5700;50.996;7.044;2023-08-06T11:18:51;2.00;;;1.23;;
11287;SDS011;5700;50.996;7.044;2023-08-06T11:21:54;2.65;;;1.30;;
11287;SDS011;5700;50.996;7.044;2023-08-06T11:24:56;4.22;;;1.50;;
11287;SDS011;5700;50.996;7.044;2023-08-06T11:28:00;3.53;;;2.13;;
11287;SDS011;5700;50.996;7.044;2023-08-06T11:31:04;5.20;;;1.80;;
11287;SDS011;5700;50.996;7.044;2023-08-06T11:34:05;4.18;;;1.90;;
11287;SDS011;5700;50.996;7.044;2023-08-06T11:37:07;3.08;;;1.88;;
11287;SDS011;5700;50.996;7.044;2023-08-06T11:40:10;4.53;;;2.10;;
11287;SDS011;5700;50.996;7.044;2023-08-06T11:43:13;6.25;;;1.92;;
11287;SDS011;5700;50.996;7.044;2023-08-06T11:46:17;3.97;;;1.75;;
11287;SDS011;5700;50.996;7.044;2023-08-06T11:49:18;5.43;;;1.92;;
11287;SDS011;5700;50.996;7.044;2023-08-06T11:52:22;5.43;;;2.17;;
11287;SDS011;5700;50.996;7.044;2023-08-06T11:55:24;7.70;;;2.45;;
11287;SDS011;5700;50.996;7.044;2023-08-06T11:58:26;4.38;;;1.98;;
11287;SDS011;5700;50.996;7.044;2023-08-06T12:01:29;3.67;;;2.10;;
11287;SDS011;5700;50.996;7.044;2023-08-06T12:04:31;6.07;;;2.38;;
11287;SDS011;5700;50.996;7.044;2023-08-06T12:07:33;5.15;;;2.40;;
11287;SDS011;5700;50.996;7.044;2023-08-06T12:10:38;5.75;;;2.80;;
11287;SDS011;5700;50.996;7.044;2023-08-06T12:13:40;4.90;;;2.17;;
11287;SDS011;5700;50.996;7.044;2023-08-06T12:16:42;3.85;;;2.15;;
11287;SDS011;5700;50.996;7.044;2023-08-06T12:19:44;2.97;;;1.88;;
11287;SDS011;5700;50.996;7.044;2023-08-06T12:22:47;6.18;;;2.47;;
11287;SDS011;5700;50.996;7.044;2023-08-06T12:25:48;5.25;;;1.60;;
11287;SDS011;5700;50.996;7.044;2023-08-06T12:28:50;7.63;;;1.75;;
11287;SDS011;5700;50.996;7.044;2023-08-06T12:31:56;4.13;;;2.20;;
11287;SDS011;5700;50.996;7.044;2023-08-06T12:34:58;5.28;;;2.00;;
11287;SDS011;5700;50.996;7.044;2023-08-06T12:38:00;4.45;;;1.92;;
11287;SDS011;5700;50.996;7.044;2023-08-06T12:41:02;3.58;;;1.80;;
11287;SDS011;5700;50.996;7.044;2023-08-06T12:44:04;2.92;;;1.85;;
11287;SDS011;5700;50.996;7.044;2023-08-06T12:47:08;4.82;;;2.00;;
11287;SDS011;5700;50.996;7.044;2023-08-06T12:50:09;4.78;;;1.85;;
11287;SDS011;5700;50.996;7.044;2023-08-06T12:53:11;3.28;;;1.60;;
11287;SDS011;5700;50.996;7.044;2023-08-06T12:56:13;4.93;;;1.58;;
11287;SDS011;5700;50.996;7.044;2023-08-06T12:59:15;3.90;;;1.50;;
11287;SDS011;5700;50.996;7.044;2023-08-06T13:02:19;4.90;;;1.58;;
11287;SDS011;5700;50.996;7.044;2023-08-06T13:05:20;4.97;;;1.75;;
11287;SDS011;5700;50.996;7.044;2023-08-06T13:08:22;5.68;;;2.00;;
11287;SDS011;5700;50.996;7.044;2023-08-06T13:11:24;3.60;;;2.05;;
11287;SDS011;5700;50.996;7.044;2023-08-06T13:14:25;4.53;;;1.70;;
11287;SDS011;5700;50.996;7.044;2023-08-06T13:17:29;4.05;;;1.83;;
11287;SDS011;5700;50.996;7.044;2023-08-06T13:20:31;5.22;;;1.73;;
11287;SDS011;5700;50.996;7.044;2023-08-06T13:23:33;5.10;;;2.00;;
11287;SDS011;5700;50.996;7.044;2023-08-06T13:26:35;4.10;;;1.75;;
11287;SDS011;5700;50.996;7.044;2023-08-06T13:29:36;5.45;;;1.88;;
11287;SDS011;5700;50.996;7.044;2023-08-06T13:32:40;4.72;;;2.13;;
11287;SDS011;5700;50.996;7.044;2023-08-06T13:35:41;4.80;;;1.80;;
11287;SDS011;5700;50.996;7.044;2023-08-06T13:38:44;3.67;;;1.77;;
11287;SDS011;5700;50.996;7.044;2023-08-06T13:41:45;3.95;;;1.80;;
11287;SDS011;5700;50.996;7.044;2023-08-06T13:44:47;3.85;;;1.70;;
11287;SDS011;5700;50.996;7.044;2023-08-06T13:47:51;3.40;;;1.45;;
11287;SDS011;5700;50.996;7.044;2023-08-06T13:50:53;3.53;;;1.65;;
11287;SDS011;5700;50.996;7.044;2023-08-06T13:53:55;4.70;;;1.45;;
11287;SDS011;5700;50.996;7.044;2023-08-06T13:56:57;3.78;;;1.27;;
11287;SDS011;5700;50.996;7.044;2023-08-06T13:59:59;2.25;;;1.20;;
11287;SDS011;5700;50.996;7.044;2023-08-06T14:03:02;3.15;;;1.40;;
11287;SDS011;5700;50.996;7.044;2023-08-06T14:06:04;3.88;;;1.67;;
11287;SDS011;5700;50.996;7.044;2023-08-06T14:09:05;3.88;;;1.50;;
11287;SDS011;5700;50.996;7.044;2023-08-06T14:12:07;5.22;;;1.73;;
11287;SDS011;5700;50.996;7.044;2023-08-06T14:15:10;3.92;;;1.60;;
11287;SDS011;5700;50.996;7.044;2023-08-06T14:18:13;3.90;;;1.83;;
11287;SDS011;5700;50.996;7.044;2023-08-06T14:21:15;3.92;;;2.35;;
11287;SDS011;5700;50.996;7.044;2023-08-06T14:24:17;5.15;;;2.08;;
11287;SDS011;5700;50.996;7.044;2023-08-06T14:27:19;3.78;;;1.95;;
11287;SDS011;5700;50.996;7.044;2023-08-06T14:30:20;5.40;;;2.58;;
11287;SDS011;5700;50.996;7.044;2023-08-06T14:33:23;5.93;;;2.97;;
11287;SDS011;5700;50.996;7.044;2023-08-06T14:36:25;6.35;;;2.80;;
11287;SDS011;5700;50.996;7.044;2023-08-06T14:39:27;5.22;;;3.40;;
11287;SDS011;5700;50.996;7.044;2023-08-06T14:42:28;5.40;;;2.17;;
11287;SDS011;5700;50.996;7.044;2023-08-06T14:45:30;5.97;;;2.28;;
11287;SDS011;5700;50.996;7.044;2023-08-06T14:48:33;4.53;;;1.90;;
11287;SDS011;5700;50.996;7.044;2023-08-06T14:51:35;3.20;;;1.33;;
11287;SDS011;5700;50.996;7.044;2023-08-06T14:54:39;3.50;;;1.23;;
11287;SDS011;5700;50.996;7.044;2023-08-06T14:57:40;4.82;;;1.48;;
11287;SDS011;5700;50.996;7.044;2023-08-06T15:00:42;3.85;;;1.58;;
11287;SDS011;5700;50.996;7.044;2023-08-06T15:03:45;3.83;;;1.30;;
11287;SDS011;5700;50.996;7.044;2023-08-06T15:06:47;4.22;;;1.52;;
11287;SDS011;5700;50.996;7.044;2023-08-06T15:09:49;6.15;;;1.60;;
11287;SDS011;5700;50.996;7.044;2023-08-06T15:12:50;3.97;;;1.45;;
11287;SDS011;5700;50.996;7.044;2023-08-06T15:15:52;5.10;;;2.22;;
11287;SDS011;5700;50.996;7.044;2023-08-06T15:18:54;5.95;;;1.88;;
11287;SDS011;5700;50.996;7.044;2023-08-06T15:21:56;3.25;;;1.50;;
11287;SDS011;5700;50.996;7.044;2023-08-06T15:24:57;5.38;;;1.92;;
11287;SDS011;5700;50.996;7.044;2023-08-06T15:27:59;3.20;;;2.00;;
11287;SDS011;5700;50.996;7.044;2023-08-06T15:31:01;4.03;;;1.95;;
11287;SDS011;5700;50.996;7.044;2023-08-06T15:34:05;2.15;;;1.50;;
11287;SDS011;5700;50.996;7.044;2023-08-06T15:37:07;6.10;;;1.77;;
11287;SDS011;5700;50.996;7.044;2023-08-06T15:40:09;3.67;;;1.65;;
11287;SDS011;5700;50.996;7.044;2023-08-06T15:43:11;4.30;;;1.60;;
11287;SDS011;5700;50.996;7.044;2023-08-06T15:46:13;3.25;;;1.50;;
11287;SDS011;5700;50.996;7.044;2023-08-06T15:49:17;3.72;;;1.50;;
11287;SDS011;5700;50.996;7.044;2023-08-06T15:52:19;4.68;;;2.10;;
11287;SDS011;5700;50.996;7.044;2023-08-06T15:55:20;3.53;;;1.50;;
11287;SDS011;5700;50.996;7.044;2023-08-06T15:58:22;4.43;;;1.90;;
11287;SDS011;5700;50.996;7.044;2023-08-06T16:01:23;4.63;;;1.67;;
11287;SDS011;5700;50.996;7.044;2023-08-06T16:04:26;2.40;;;1.60;;
11287;SDS011;5700;50.996;7.044;2023-08-06T16:07:28;3.00;;;1.80;;
11287;SDS011;5700;50.996;7.044;2023-08-06T16:10:30;5.75;;;1.80;;
11287;SDS011;5700;50.996;7.044;2023-08-06T16:13:31;2.90;;;1.70;;
11287;SDS011;5700;50.996;7.044;2023-08-06T16:16:33;2.92;;;1.48;;
11287;SDS011;5700;50.996;7.044;2023-08-06T16:19:36;3.55;;;1.50;;
11287;SDS011;5700;50.996;7.044;2023-08-06T16:22:38;5.53;;;1.52;;
11287;SDS011;5700;50.996;7.044;2023-08-06T16:25:40;3.55;;;1.80;;
11287;SDS011;5700;50.996;7.044;2023-08-06T16:28:45;3.17;;;1.50;;
11287;SDS011;5700;50.996;7.044;2023-08-06T16:31:46;4.97;;;1.60;;
11287;SDS011;5700;50.996;7.044;2023-08-06T16:34:50;3.15;;;1.38;;
11287;SDS011;5700;50.996;7.044;2023-08-06T16:37:52;3.65;;;2.40;;
11287;SDS011;5700;50.996;7.044;2023-08-06T16:40:54;4.60;;;2.30;;
11287;SDS011;5700;50.996;7.044;2023-08-06T16:43:56;5.90;;;2.25;;
11287;SDS011;5700;50.996;7.044;2023-08-06T16:46:58;5.07;;;1.98;;
11287;SDS011;5700;50.996;7.044;2023-08-06T16:50:02;6.65;;;2.17;;
11287;SDS011;5700;50.996;7.044;2023-08-06T16:53:04;5.60;;;2.00;;
11287;SDS011;5700;50.996;7.044;2023-08-06T16:56:06;5.97;;;2.58;;
11287;SDS011;5700;50.996;7.044;2023-08-06T16:59:08;4.40;;;2.53;;
11287;SDS011;5700;50.996;7.044;2023-08-06T17:02:09;4.45;;;2.50;;
11287;SDS011;5700;50.996;7.044;2023-08-06T17:05:13;5.70;;;2.22;;
11287;SDS011;5700;50.996;7.044;2023-08-06T17:08:15;3.15;;;1.98;;
11287;SDS011;5700;50.996;7.044;2023-08-06T17:11:17;2.97;;;1.90;;
11287;SDS011;5700;50.996;7.044;2023-08-06T17:14:19;5.85;;;2.20;;
11287;SDS011;5700;50.996;7.044;2023-08-06T17:17:20;4.18;;;2.63;;
11287;SDS011;5700;50.996;7.044;2023-08-06T17:20:23;7.05;;;2.58;;
11287;SDS011;5700;50.996;7.044;2023-08-06T17:23:26;5.55;;;1.90;;
11287;SDS011;5700;50.996;7.044;2023-08-06T17:26:28;3.53;;;1.60;;
11287;SDS011;5700;50.996;7.044;2023-08-06T17:29:30;4.03;;;1.70;;
11287;SDS011;5700;50.996;7.044;2023-08-06T17:32:32;2.95;;;1.67;;
11287;SDS011;5700;50.996;7.044;2023-08-06T17:35:35;4.50;;;2.42;;
11287;SDS011;5700;50.996;7.044;2023-08-06T17:38:36;3.75;;;1.90;;
11287;SDS011;5700;50.996;7.044;2023-08-06T17:41:38;3.92;;;1.88;;
11287;SDS011;5700;50.996;7.044;2023-08-06T17:44:40;2.38;;;1.10;;
11287;SDS011;5700;50.996;7.044;2023-08-06T17:47:42;3.92;;;1.33;;
11287;SDS011;5700;50.996;7.044;2023-08-06T17:50:45;3.58;;;1.10;;
11287;SDS011;5700;50.996;7.044;2023-08-06T17:53:47;3.78;;;1.10;;
11287;SDS011;5700;50.996;7.044;2023-08-06T17:56:48;2.55;;;1.20;;
11287;SDS011;5700;50.996;7.044;2023-08-06T17:59:50;3.53;;;1.55;;
11287;SDS011;5700;50.996;7.044;2023-08-06T18:02:52;1.33;;;1.02;;
11287;SDS011;5700;50.996;7.044;2023-08-06T18:05:55;2.28;;;1.30;;
11287;SDS011;5700;50.996;7.044;2023-08-06T18:08:57;1.63;;;1.20;;
11287;SDS011;5700;50.996;7.044;2023-08-06T18:11:58;3.83;;;1.25;;
11287;SDS011;5700;50.996;7.044;2023-08-06T18:15:00;2.60;;;1.27;;
11287;SDS011;5700;50.996;7.044;2023-08-06T18:18:01;1.40;;;0.80;;
11287;SDS011;5700;50.996;7.044;2023-08-06T18:21:05;3.33;;;1.00;;
11287;SDS011;5700;50.996;7.044;2023-08-06T18:24:06;1.85;;;1.20;;
11287;SDS011;5700;50.996;7.044;2023-08-06T18:27:08;3.10;;;1.42;;
11287;SDS011;5700;50.996;7.044;2023-08-06T18:30:11;3.65;;;1.90;;
11287;SDS011;5700;50.996;7.044;2023-08-06T18:33:13;1.45;;;1.10;;
11287;SDS011;5700;50.996;7.044;2023-08-06T18:36:16;2.42;;;1.00;;
11287;SDS011;5700;50.996;7.044;2023-08-06T18:39:18;3.88;;;1.13;;